PAUN/UNK METAR and TAF weather

Enter ICAO airport designator
Station Type Date Time Source
PAUN METAR 2023/01/29 17:56 UTC NOAA

PAUN 291756Z AUTO 08022G27KT 10SM SCT085 M03/M04 A3022 RMK AO2 PK WND 08028/1704 SLP238 60000 T10281044 11022 21039 56026 FZRANO


Station Type Date Time Source
PAUN Decoded METAR 2023/01/29 17:56 UTC NOAA

Unalakleet, AK, United States (PAUN) 63-53N 160-48W 6M
Jan 29, 2023 - 12:56 PM EST / 2023.01.29 1756 UTC
Wind: from the E (080 degrees) at 25 MPH (22 KT) gusting to 31 MPH (27 KT):0
Visibility: 10 mile(s):0
Sky conditions: partly cloudy
Temperature: 27.0 F (-2.8 C)
Windchill: 12 F (-11 C):1
Dew Point: 24.1 F (-4.4 C)
Relative Humidity: 88%
Pressure (altimeter): 30.22 in. Hg (1023 hPa)
Pressure tendency: 0.08 inches (2.6 hPa) lower than three hours ago
ob: PAUN 291756Z AUTO 08022G27KT 10SM SCT085 M03/M04 A3022 RMK AO2 PK WND 08028/1704 SLP238 60000 T10281044 11022 21039 56026 FZRANO
cycle: 18

Station Type Date Time Source
PAUN TAF 2023/01/29 18:24 UTC NOAA

TAF PAUN 291720Z 2918/3018 09022KT P6SM -SN BKN035 OVC045
FM292100 09022KT P6SM VCSH BKN025 OVC035
FM300300 09022KT 6SM -FZRASN BR BKN025 OVC035

Example: see airport list